Tokuyo Maru No.15 — JD2184 — position and weather

sailwx.info

Track history (hours):
 
Tides and Currents Weather Stations Pressure Air Temp Water Temp Dewpoint Dewpoint Depression Visibility Wind Speed Wind Dir Waves Ship Positions

Tokuyo Maru No.15

Last reported at 2017-Mar-27 19:33 UTC. Time now 2017-Mar-27 20:37 UTC.
Position N 35°01' E 139°49'.

Length 66 m; draft 4.5 m.

Type: Tanker. MMSI: 431402034.

Date/timePositionNaut miles runAvg speedWind from/ knotsBaromVisibWave heightAir tempDewpointWater temp
2017-Mar-27 19:33N 35°01' E 139°49'0 0.0
2017-Mar-27 18:33N 35°01' E 139°49'0 0.0
2017-Mar-27 17:31N 35°01' E 139°49'0 0.0
2017-Mar-27 16:32N 35°01' E 139°49'0 0.1
2017-Mar-27 15:34N 35°01' E 139°49'0 0.0
2017-Mar-27 14:26N 35°01' E 139°49'0 0.0
2017-Mar-27 13:30N 35°01' E 139°49'0 0.0
2017-Mar-27 12:33N 35°01' E 139°49'  
2017-Mar-25 05:25N 34°14' E 134°59'2412.3
2017-Mar-25 03:27N 34°31' E 135°19'6 1.1
2017-Mar-24 22:18N 34°32' E 135°25'4 5.7
2017-Mar-24 21:32N 34°32' E 135°20'0 0.3
2017-Mar-24 20:28N 34°32' E 135°20'0 0.0
2017-Mar-24 19:28N 34°32' E 135°20'0 0.0
2017-Mar-24 18:16N 34°32' E 135°20'0 0.4
2017-Mar-24 17:33N 34°32' E 135°19'2510.9
2017-Mar-24 15:16N 34°14' E 134°59'243 9.7
2017-Mar-23 14:18N 35°14' E 139°46'912.1
2017-Mar-23 13:33N 35°22' E 139°42'12 1.1
2017-Mar-23 02:27N 35°29' E 139°55'1 0.6
2017-Mar-23 01:33N 35°29' E 139°55'0 0.0
2017-Mar-23 00:33N 35°29' E 139°55'0 0.0
2017-Mar-22 20:30N 35°29' E 139°55'0 0.0
2017-Mar-22 19:30N 35°29' E 139°55'0 0.0
2017-Mar-22 18:33N 35°29' E 139°55'0 0.0
2017-Mar-22 17:27N 35°29' E 139°55'0 0.1
2017-Mar-22 16:33N 35°29' E 139°55'10 9.8
2017-Mar-22 15:33N 35°22' E 139°45'1111.1
2017-Mar-22 14:33N 35°11' E 139°47'1111.1
2017-Mar-22 13:33N 35°03' E 139°38'23610.2
2017-Mar-21 14:20N 34°05' E 134°59'1113.5
2017-Mar-21 13:31N 34°16' E 134°59'1211.0
2017-Mar-21 12:28N 34°24' E 135°09'1 0.1
2017-Mar-21 04:31N 34°25' E 135°09'1211.8
2017-Mar-21 03:29N 34°33' E 135°21'4 1.9
2017-Mar-21 01:33N 34°32' E 135°25'0 0.0
2017-Mar-21 00:34N 34°32' E 135°25'1 0.5
2017-Mar-20 23:30N 34°33' E 135°25'4 4.7
2017-Mar-20 22:33N 34°32' E 135°20'0 0.0
2017-Mar-20 21:33N 34°32' E 135°20'0 0.0
2017-Mar-20 20:33N 34°32' E 135°20'0 0.0
2017-Mar-20 19:33N 34°32' E 135°20'0 0.0
2017-Mar-20 18:33N 34°32' E 135°20'0 0.0
2017-Mar-20 17:33N 34°32' E 135°20'0 0.1
2017-Mar-20 16:32N 34°32' E 135°20'0 0.0
2017-Mar-20 15:30N 34°32' E 135°20'0 0.0
2017-Mar-20 14:32N 34°32' E 135°20'0 0.0
2017-Mar-20 13:34N 34°32' E 135°20'0 0.1
2017-Mar-20 12:33N 34°32' E 135°20'0 0.0
2017-Mar-20 11:30N 34°32' E 135°20'0 0.1
2017-Mar-20 10:33N 34°32' E 135°20'0 0.0
2017-Mar-20 09:33N 34°32' E 135°20'0 0.0
2017-Mar-20 08:33N 34°32' E 135°20'0 0.0
2017-Mar-20 07:33N 34°32' E 135°20'0 0.1
2017-Mar-20 06:30N 34°32' E 135°20'0 0.0
2017-Mar-20 05:32N 34°32' E 135°20'0 0.0
2017-Mar-20 04:33N 34°32' E 135°20'0 0.0
2017-Mar-20 03:30N 34°32' E 135°20'0 0.0
2017-Mar-20 01:30N 34°32' E 135°20'0 0.0
2017-Mar-20 00:30N 34°32' E 135°20'0 0.0
2017-Mar-19 23:30N 34°32' E 135°20'0 0.0
2017-Mar-19 22:30N 34°32' E 135°20'0 0.0
2017-Mar-19 21:24N 34°32' E 135°20'0 0.0
2017-Mar-19 20:30N 34°32' E 135°20'0 0.0
2017-Mar-19 19:30N 34°32' E 135°20'0 0.0
2017-Mar-19 18:24N 34°32' E 135°20'0 0.0
2017-Mar-19 17:30N 34°32' E 135°20'0 0.0
2017-Mar-19 16:30N 34°32' E 135°20'0 0.0
2017-Mar-19 15:24N 34°32' E 135°20'0 0.0
2017-Mar-19 14:30N 34°32' E 135°20'0 0.1
2017-Mar-19 13:30N 34°32' E 135°20'0 0.0
2017-Mar-19 11:18N 34°32' E 135°20'0 0.0
2017-Mar-19 10:06N 34°32' E 135°20'0 0.0
2017-Mar-19 07:24N 34°32' E 135°20'0 0.0
2017-Mar-19 06:18N 34°32' E 135°20'0 0.1
2017-Mar-19 05:30N 34°32' E 135°20'0 0.0
2017-Mar-19 04:30N 34°32' E 135°20'0 0.0
2017-Mar-19 03:30N 34°32' E 135°20'0 0.0
2017-Mar-19 02:18N 34°32' E 135°20'3 3.8
2017-Mar-19 01:33N 34°33' E 135°23'2 0.8
2017-Mar-18 23:07N 34°32' E 135°25'3 4.9
2017-Mar-18 22:33N 34°33' E 135°22'2 0.7
2017-Mar-18 19:33N 34°32' E 135°20'7 6.8
2017-Mar-18 18:33N 34°28' E 135°13'1712.2
2017-Mar-18 17:11N 34°16' E 134°59'913.0
2017-Mar-18 16:28N 34°07' E 134°60'  
Track history (hours):
 
Tides and Currents Weather Stations Pressure Air Temp Water Temp Dewpoint Dewpoint Depression Visibility Wind Speed Wind Dir Waves Ship Positions

Tokuyo Maru No.15

Last reported at 2017-Mar-27 19:33 UTC. Time now 2017-Mar-27 20:37 UTC.
Position N 35°01' E 139°49'.

Length 66 m; draft 4.5 m.

Type: Tanker. MMSI: 431402034.

Date/timePositionNaut miles runAvg speedWind from/ knotsBaromVisibWave heightAir tempDewpointWater temp
2017-Mar-27 19:33N 35°01' E 139°49'0 0.0
2017-Mar-27 18:33N 35°01' E 139°49'0 0.0
2017-Mar-27 17:31N 35°01' E 139°49'0 0.0
2017-Mar-27 16:32N 35°01' E 139°49'0 0.1
2017-Mar-27 15:34N 35°01' E 139°49'0 0.0
2017-Mar-27 14:26N 35°01' E 139°49'0 0.0
2017-Mar-27 13:30N 35°01' E 139°49'0 0.0
2017-Mar-27 12:33N 35°01' E 139°49'  
2017-Mar-25 05:25N 34°14' E 134°59'2412.3
2017-Mar-25 03:27N 34°31' E 135°19'6 1.1
2017-Mar-24 22:18N 34°32' E 135°25'4 5.7
2017-Mar-24 21:32N 34°32' E 135°20'0 0.3
2017-Mar-24 20:28N 34°32' E 135°20'0 0.0
2017-Mar-24 19:28N 34°32' E 135°20'0 0.0
2017-Mar-24 18:16N 34°32' E 135°20'0 0.4
2017-Mar-24 17:33N 34°32' E 135°19'2510.9
2017-Mar-24 15:16N 34°14' E 134°59'243 9.7
2017-Mar-23 14:18N 35°14' E 139°46'912.1
2017-Mar-23 13:33N 35°22' E 139°42'12 1.1
2017-Mar-23 02:27N 35°29' E 139°55'1 0.6
2017-Mar-23 01:33N 35°29' E 139°55'0 0.0
2017-Mar-23 00:33N 35°29' E 139°55'0 0.0
2017-Mar-22 20:30N 35°29' E 139°55'0 0.0
2017-Mar-22 19:30N 35°29' E 139°55'0 0.0
2017-Mar-22 18:33N 35°29' E 139°55'0 0.0
2017-Mar-22 17:27N 35°29' E 139°55'0 0.1
2017-Mar-22 16:33N 35°29' E 139°55'10 9.8
2017-Mar-22 15:33N 35°22' E 139°45'1111.1
2017-Mar-22 14:33N 35°11' E 139°47'1111.1
2017-Mar-22 13:33N 35°03' E 139°38'23610.2
2017-Mar-21 14:20N 34°05' E 134°59'1113.5
2017-Mar-21 13:31N 34°16' E 134°59'1211.0
2017-Mar-21 12:28N 34°24' E 135°09'1 0.1
2017-Mar-21 04:31N 34°25' E 135°09'1211.8
2017-Mar-21 03:29N 34°33' E 135°21'4 1.9
2017-Mar-21 01:33N 34°32' E 135°25'0 0.0
2017-Mar-21 00:34N 34°32' E 135°25'1 0.5
2017-Mar-20 23:30N 34°33' E 135°25'4 4.7
2017-Mar-20 22:33N 34°32' E 135°20'0 0.0
2017-Mar-20 21:33N 34°32' E 135°20'0 0.0
2017-Mar-20 20:33N 34°32' E 135°20'0 0.0
2017-Mar-20 19:33N 34°32' E 135°20'0 0.0
2017-Mar-20 18:33N 34°32' E 135°20'0 0.0
2017-Mar-20 17:33N 34°32' E 135°20'0 0.1
2017-Mar-20 16:32N 34°32' E 135°20'0 0.0
2017-Mar-20 15:30N 34°32' E 135°20'0 0.0
2017-Mar-20 14:32N 34°32' E 135°20'0 0.0
2017-Mar-20 13:34N 34°32' E 135°20'0 0.1
2017-Mar-20 12:33N 34°32' E 135°20'0 0.0
2017-Mar-20 11:30N 34°32' E 135°20'0 0.1
2017-Mar-20 10:33N 34°32' E 135°20'0 0.0
2017-Mar-20 09:33N 34°32' E 135°20'0 0.0
2017-Mar-20 08:33N 34°32' E 135°20'0 0.0
2017-Mar-20 07:33N 34°32' E 135°20'0 0.1
2017-Mar-20 06:30N 34°32' E 135°20'0 0.0
2017-Mar-20 05:32N 34°32' E 135°20'0 0.0
2017-Mar-20 04:33N 34°32' E 135°20'0 0.0
2017-Mar-20 03:30N 34°32' E 135°20'0 0.0
2017-Mar-20 01:30N 34°32' E 135°20'0 0.0
2017-Mar-20 00:30N 34°32' E 135°20'0 0.0
2017-Mar-19 23:30N 34°32' E 135°20'0 0.0
2017-Mar-19 22:30N 34°32' E 135°20'0 0.0
2017-Mar-19 21:24N 34°32' E 135°20'0 0.0
2017-Mar-19 20:30N 34°32' E 135°20'0 0.0
2017-Mar-19 19:30N 34°32' E 135°20'0 0.0
2017-Mar-19 18:24N 34°32' E 135°20'0 0.0
2017-Mar-19 17:30N 34°32' E 135°20'0 0.0
2017-Mar-19 16:30N 34°32' E 135°20'0 0.0
2017-Mar-19 15:24N 34°32' E 135°20'0 0.0
2017-Mar-19 14:30N 34°32' E 135°20'0 0.1
2017-Mar-19 13:30N 34°32' E 135°20'0 0.0
2017-Mar-19 11:18N 34°32' E 135°20'0 0.0
2017-Mar-19 10:06N 34°32' E 135°20'0 0.0
2017-Mar-19 07:24N 34°32' E 135°20'0 0.0
2017-Mar-19 06:18N 34°32' E 135°20'0 0.1
2017-Mar-19 05:30N 34°32' E 135°20'0 0.0
2017-Mar-19 04:30N 34°32' E 135°20'0 0.0
2017-Mar-19 03:30N 34°32' E 135°20'0 0.0
2017-Mar-19 02:18N 34°32' E 135°20'3 3.8
2017-Mar-19 01:33N 34°33' E 135°23'2 0.8
2017-Mar-18 23:07N 34°32' E 135°25'3 4.9
2017-Mar-18 22:33N 34°33' E 135°22'2 0.7
2017-Mar-18 19:33N 34°32' E 135°20'7 6.8
2017-Mar-18 18:33N 34°28' E 135°13'1712.2
2017-Mar-18 17:11N 34°16' E 134°59'913.0
2017-Mar-18 16:28N 34°07' E 134°60'  

Dump ship's entire track history